createdAt,value
2018-08-09T00:02:08.434Z,71.00
2018-08-09T00:04:38.254Z,71.00
2018-08-09T00:07:07.855Z,70.90
2018-08-09T00:09:38.720Z,71.50
2018-08-09T00:12:08.269Z,71.40
2018-08-09T00:14:37.821Z,71.50
2018-08-09T00:17:07.895Z,71.60
2018-08-09T00:19:40.153Z,71.00
2018-08-09T00:22:09.656Z,72.00
2018-08-09T00:24:40.423Z,72.50
2018-08-09T00:27:11.665Z,72.30
2018-08-09T00:29:41.304Z,72.00
2018-08-09T00:32:10.801Z,71.20
2018-08-09T00:34:40.796Z,71.10
2018-08-09T00:37:10.288Z,72.00
2018-08-09T00:39:40.490Z,72.10
2018-08-09T00:42:09.970Z,71.80
2018-08-09T00:44:39.385Z,71.90
2018-08-09T00:47:08.905Z,71.90
2018-08-09T00:49:38.771Z,71.80
2018-08-09T00:52:08.383Z,71.70
2018-08-09T00:54:38.199Z,71.90
2018-08-09T00:57:07.931Z,72.00
2018-08-09T00:59:40.454Z,73.00
2018-08-09T01:02:09.976Z,72.10
2018-08-09T01:04:39.701Z,72.90
2018-08-09T01:07:09.583Z,73.90
2018-08-09T01:09:39.563Z,74.60
2018-08-09T01:12:09.473Z,75.10
2018-08-09T01:14:40.295Z,75.60
2018-08-09T01:17:12.126Z,75.10
2018-08-09T01:19:41.920Z,75.10
2018-08-09T01:22:11.452Z,75.60
2018-08-09T01:24:40.880Z,76.20
2018-08-09T01:27:10.471Z,76.10
2018-08-09T01:29:41.128Z,76.00
2018-08-09T01:32:11.896Z,76.10
2018-08-09T01:34:41.384Z,75.40
2018-08-09T01:37:10.885Z,75.50
2018-08-09T01:39:44.993Z,75.20
2018-08-09T01:42:25.240Z,75.90
2018-08-09T01:44:54.765Z,76.40
2018-08-09T01:47:30.424Z,76.30
2018-08-09T01:49:59.903Z,76.10
2018-08-09T01:52:29.365Z,76.00
2018-08-09T01:54:58.893Z,76.50
2018-08-09T01:57:29.818Z,76.70
2018-08-09T01:59:59.288Z,76.00
2018-08-09T02:02:28.778Z,76.20
2018-08-09T02:04:58.385Z,76.40
2018-08-09T02:07:28.243Z,77.00
2018-08-09T02:09:57.760Z,77.30
2018-08-09T02:12:27.248Z,77.60
2018-08-09T02:14:56.964Z,77.30
2018-08-09T02:17:26.700Z,77.70
2018-08-09T02:19:56.273Z,78.00
2018-08-09T02:22:25.702Z,77.80
2018-08-09T02:24:55.298Z,77.50
2018-08-09T02:27:26.368Z,78.00
2018-08-09T02:29:55.915Z,78.10
2018-08-09T02:32:32.701Z,78.30
2018-08-09T02:35:02.148Z,79.20
2018-08-09T02:37:31.665Z,78.40
2018-08-09T02:40:01.190Z,78.50
2018-08-09T02:42:32.968Z,79.10
2018-08-09T02:45:02.440Z,79.60
2018-08-09T02:47:31.994Z,79.20
2018-08-09T02:50:01.423Z,79.60
2018-08-09T02:52:31.506Z,79.50
2018-08-09T02:55:01.060Z,79.10
2018-08-09T02:57:30.458Z,79.30
2018-08-09T02:59:59.978Z,80.00
2018-08-09T03:02:29.818Z,80.30
2018-08-09T03:04:59.254Z,79.70
2018-08-09T03:07:28.984Z,79.60
2018-08-09T03:09:58.433Z,81.00
2018-08-09T03:12:27.897Z,80.30
2018-08-09T03:14:57.266Z,81.10
2018-08-09T03:17:27.125Z,80.80
2018-08-09T03:19:56.590Z,80.30
2018-08-09T03:22:26.115Z,80.20
2018-08-09T03:24:55.592Z,80.50
2018-08-09T03:27:25.374Z,80.10
2018-08-09T03:29:54.799Z,80.90
2018-08-09T03:32:24.259Z,81.60
2018-08-09T03:34:53.746Z,82.00
2018-08-09T03:37:23.472Z,81.00
2018-08-09T03:39:52.884Z,81.40
2018-08-09T03:42:22.437Z,82.50
2018-08-09T03:44:51.951Z,82.20
2018-08-09T03:47:22.745Z,82.40
2018-08-09T03:49:52.170Z,82.60
2018-08-09T03:52:21.685Z,81.70
2018-08-09T03:54:51.159Z,82.50
2018-08-09T03:57:20.593Z,82.80
2018-08-09T03:59:50.043Z,82.20
2018-08-09T04:02:21.078Z,82.60
2018-08-09T04:04:50.637Z,82.30
2018-08-09T04:07:20.109Z,82.50
2018-08-09T04:09:49.618Z,82.00
2018-08-09T04:12:21.007Z,82.00
2018-08-09T04:14:50.416Z,82.00
2018-08-09T04:17:21.499Z,81.50
2018-08-09T04:19:52.053Z,81.40
2018-08-09T04:22:22.944Z,81.80
2018-08-09T04:24:52.733Z,81.70
2018-08-09T04:27:22.264Z,82.00
2018-08-09T04:29:51.867Z,81.80
2018-08-09T04:32:21.333Z,81.60
2018-08-09T04:34:51.039Z,81.30
2018-08-09T04:37:20.752Z,81.60
2018-08-09T04:39:53.894Z,81.50
2018-08-09T04:42:23.402Z,80.70
2018-08-09T04:44:52.879Z,81.60
2018-08-09T04:47:22.962Z,81.80
2018-08-09T04:49:52.460Z,81.10
2018-08-09T04:52:22.007Z,81.10
2018-08-09T04:54:51.472Z,81.60
2018-08-09T04:57:21.847Z,81.60
2018-08-09T04:59:51.365Z,81.10
2018-08-09T05:02:20.932Z,80.70
2018-08-09T05:04:50.718Z,82.10
2018-08-09T05:07:20.188Z,81.30
2018-08-09T05:09:50.705Z,81.40
2018-08-09T05:12:22.938Z,81.00
2018-08-09T05:14:52.514Z,80.40
2018-08-09T05:17:22.031Z,81.00
2018-08-09T05:19:51.799Z,81.20
2018-08-09T05:22:21.299Z,80.40
2018-08-09T05:24:51.583Z,81.90
2018-08-09T05:27:21.479Z,81.20
2018-08-09T05:29:50.953Z,82.30
2018-08-09T05:32:21.544Z,81.70
2018-08-09T05:34:52.203Z,81.70
2018-08-09T05:37:21.810Z,81.90
2018-08-09T05:39:51.278Z,81.60
2018-08-09T05:42:22.154Z,80.60
2018-08-09T05:44:51.716Z,81.00
2018-08-09T05:47:21.332Z,81.30
2018-08-09T05:49:51.397Z,81.50
2018-08-09T05:52:21.044Z,81.50
2018-08-09T05:54:50.634Z,81.80
2018-08-09T05:57:20.258Z,82.10
2018-08-09T05:59:50.119Z,81.00
2018-08-09T06:02:20.897Z,80.70
2018-08-09T06:04:50.466Z,79.60
2018-08-09T06:07:20.058Z,78.70
2018-08-09T06:09:49.903Z,78.70
2018-08-09T06:12:19.801Z,78.00
2018-08-09T06:14:49.968Z,77.80
2018-08-09T06:17:20.263Z,78.10
2018-08-09T06:19:50.548Z,77.20
2018-08-09T06:22:20.018Z,77.20
2018-08-09T06:24:49.926Z,77.40
2018-08-09T06:27:19.854Z,77.00
2018-08-09T06:29:49.748Z,77.10
2018-08-09T06:32:19.333Z,76.80
2018-08-09T06:34:51.258Z,77.10
2018-08-09T06:37:21.922Z,76.90
2018-08-09T06:39:53.887Z,77.10
2018-08-09T06:42:25.442Z,77.40
2018-08-09T06:44:56.582Z,77.00
2018-08-09T06:47:26.581Z,76.60
2018-08-09T06:49:56.072Z,76.00
2018-08-09T06:52:28.048Z,76.20
2018-08-09T06:54:57.886Z,76.20
2018-08-09T07:00:37.162Z,75.70
2018-08-09T07:03:06.922Z,75.90
2018-08-09T07:05:36.435Z,77.20
2018-08-09T07:08:06.160Z,75.60
2018-08-09T07:10:36.408Z,74.50
2018-08-09T07:13:06.259Z,74.50
2018-08-09T07:15:35.826Z,73.90
2018-08-09T07:18:05.805Z,74.20
2018-08-09T07:20:37.736Z,74.10
2018-08-09T07:23:07.257Z,74.10
2018-08-09T07:25:37.076Z,74.00
2018-08-09T07:28:07.957Z,73.70
2018-08-09T07:30:37.716Z,73.60
2018-08-09T07:33:07.312Z,73.80
2018-08-09T07:35:36.918Z,73.60
2018-08-09T07:38:07.172Z,73.60
2018-08-09T07:40:36.741Z,72.70
2018-08-09T07:43:06.331Z,72.60
2018-08-09T07:45:36.175Z,71.20
2018-08-09T07:48:06.613Z,71.00
2018-08-09T07:50:37.071Z,69.90
2018-08-09T07:53:06.933Z,69.20
2018-08-09T07:55:36.468Z,68.60
2018-08-09T07:58:06.314Z,67.70
2018-08-09T08:00:36.829Z,67.40
2018-08-09T08:03:06.754Z,67.10
2018-08-09T08:05:36.425Z,65.60
2018-08-09T08:08:06.446Z,65.40
2018-08-09T08:10:36.329Z,64.60
2018-08-09T08:13:06.471Z,64.40
2018-08-09T08:15:36.163Z,65.00
2018-08-09T08:18:06.003Z,63.60
2018-08-09T08:20:35.697Z,62.60
2018-08-09T08:23:05.912Z,63.10
2018-08-09T08:25:37.566Z,62.00
2018-08-09T08:28:07.070Z,61.20
2018-08-09T08:30:36.881Z,61.40
2018-08-09T08:33:08.467Z,59.90
2018-08-09T08:35:38.063Z,58.60
2018-08-09T08:38:10.598Z,59.70
2018-08-09T08:40:40.178Z,58.20
2018-08-09T08:43:10.379Z,58.80
2018-08-09T08:45:40.159Z,57.40
2018-08-09T08:48:10.593Z,58.10
2018-08-09T08:50:41.735Z,58.50
2018-08-09T08:53:14.295Z,57.90
2018-08-09T08:55:43.887Z,58.00
2018-08-09T08:58:14.123Z,57.00
2018-08-09T09:00:44.084Z,56.30
2018-08-09T09:03:16.141Z,56.30
2018-08-09T09:05:45.756Z,56.20
2018-08-09T09:08:15.403Z,57.30
2018-08-09T09:10:45.737Z,56.60
2018-08-09T09:13:15.675Z,56.70
2018-08-09T09:15:45.349Z,57.40
2018-08-09T09:18:15.235Z,56.90
2018-08-09T09:20:45.202Z,57.00
2018-08-09T09:23:16.563Z,56.90
2018-08-09T09:25:47.058Z,57.20
2018-08-09T09:28:17.682Z,57.00
2018-08-09T09:33:32.413Z,58.30
2018-08-09T09:38:36.991Z,57.80
2018-08-09T09:41:07.041Z,57.80
2018-08-09T09:43:41.482Z,57.50
2018-08-09T09:46:11.199Z,57.80
2018-08-09T09:48:41.041Z,57.50
2018-08-09T09:51:12.764Z,57.90
2018-08-09T09:53:48.242Z,58.30
2018-08-09T09:56:21.031Z,58.40
2018-08-09T09:58:50.903Z,58.00
2018-08-09T10:01:26.993Z,58.10
2018-08-09T10:03:57.548Z,56.80
2018-08-09T10:06:29.188Z,56.30
2018-08-09T10:09:00.121Z,55.90
2018-08-09T10:11:33.448Z,55.80
2018-08-09T10:14:04.107Z,55.30
2018-08-09T10:16:35.398Z,55.00
2018-08-09T10:19:06.035Z,54.40
2018-08-09T10:21:37.444Z,54.40
2018-08-09T10:24:08.210Z,54.10
2018-08-09T10:26:40.038Z,53.40
2018-08-09T10:29:09.926Z,52.70
2018-08-09T10:31:39.453Z,52.60
2018-08-09T10:34:10.307Z,52.70
2018-08-09T10:36:41.433Z,52.30
2018-08-09T10:39:17.078Z,52.70
2018-08-09T10:41:49.902Z,53.10
2018-08-09T10:44:20.387Z,52.50
2018-08-09T10:46:49.919Z,52.90
2018-08-09T10:49:19.484Z,52.70
2018-08-09T10:51:50.038Z,52.80
2018-08-09T10:54:25.553Z,52.40
2018-08-09T10:56:56.699Z,52.50
2018-08-09T10:59:26.743Z,52.10
2018-08-09T11:01:58.589Z,52.30
2018-08-09T11:04:28.348Z,52.40
2018-08-09T11:06:58.708Z,52.20
2018-08-09T11:09:29.263Z,52.30
2018-08-09T11:11:58.986Z,52.10
2018-08-09T11:14:35.731Z,52.40
2018-08-09T11:17:06.844Z,52.70
2018-08-09T11:19:36.833Z,52.40
2018-08-09T11:22:09.245Z,52.10
2018-08-09T11:24:39.788Z,52.70
2018-08-09T11:27:10.594Z,51.70
2018-08-09T11:29:40.292Z,52.70
2018-08-09T11:32:10.677Z,51.80
2018-08-09T11:34:42.048Z,51.70
2018-08-09T11:37:14.498Z,51.20
2018-08-09T11:39:44.358Z,51.50
2018-08-09T11:42:14.369Z,51.30
2018-08-09T11:44:44.368Z,51.60
2018-08-09T11:47:13.927Z,51.30
2018-08-09T11:49:43.588Z,51.10
2018-08-09T11:52:15.547Z,51.10
2018-08-09T11:54:46.217Z,51.10
2018-08-09T11:57:16.737Z,51.30
2018-08-09T11:59:46.781Z,51.50
2018-08-09T12:02:17.468Z,51.40
2018-08-09T12:04:48.611Z,51.30
2018-08-09T12:07:22.832Z,51.50
2018-08-09T12:09:54.940Z,51.50
2018-08-09T12:12:25.204Z,51.10
2018-08-09T12:14:56.594Z,50.40
2018-08-09T12:17:27.655Z,50.20
2018-08-09T12:19:57.404Z,50.10
2018-08-09T12:22:27.219Z,50.20
2018-08-09T12:24:57.316Z,50.10
2018-08-09T12:27:29.170Z,49.30
2018-08-09T12:29:58.907Z,49.70
2018-08-09T12:32:32.702Z,50.00
2018-08-09T12:35:03.427Z,49.80
2018-08-09T12:37:33.651Z,50.10
2018-08-09T12:40:04.426Z,49.90
2018-08-09T12:42:35.601Z,49.60
2018-08-09T12:45:06.672Z,49.90
2018-08-09T12:47:39.168Z,50.10
2018-08-09T12:50:13.527Z,50.10
2018-08-09T12:52:45.203Z,49.60
2018-08-09T12:55:17.361Z,50.00
2018-08-09T12:57:52.966Z,50.20
2018-08-09T13:00:23.307Z,50.80
2018-08-09T13:02:54.023Z,50.50
2018-08-09T13:05:26.140Z,50.80
2018-08-09T13:07:58.105Z,51.10
2018-08-09T13:10:28.166Z,51.40
2018-08-09T13:13:01.389Z,52.30
2018-08-09T13:15:33.507Z,52.90
2018-08-09T13:18:03.548Z,53.50
2018-08-09T13:20:33.428Z,53.20
2018-08-09T13:23:03.026Z,54.70
2018-08-09T13:25:32.801Z,58.90
2018-08-09T13:28:05.588Z,62.50
2018-08-09T13:30:35.762Z,60.70
2018-08-09T13:33:05.818Z,61.50
2018-08-09T13:35:38.733Z,64.40
2018-08-09T13:38:12.629Z,63.60
2018-08-09T13:40:50.295Z,74.40
2018-08-09T13:43:21.551Z,79.70
2018-08-09T13:45:52.148Z,84.00
2018-08-09T13:48:22.294Z,84.30
2018-08-09T13:50:53.823Z,87.60
2018-08-09T13:53:25.738Z,86.70
2018-08-09T13:55:57.102Z,88.00
2018-08-09T13:58:26.870Z,89.40
2018-08-09T14:00:57.595Z,89.50
2018-08-09T14:03:33.263Z,90.20
2018-08-09T14:06:04.406Z,90.40
2018-08-09T14:08:35.862Z,90.20
2018-08-09T14:13:43.670Z,89.10
2018-08-09T14:16:15.360Z,88.40
2018-08-09T14:18:46.086Z,85.80
2018-08-09T14:21:18.505Z,81.80
2018-08-09T14:23:49.097Z,78.50
2018-08-09T14:26:18.848Z,79.20
2018-08-09T14:28:48.525Z,76.60
2018-08-09T14:31:19.997Z,75.40
2018-08-09T14:33:54.532Z,76.10
2018-08-09T14:36:24.394Z,74.00
2018-08-09T14:38:55.368Z,74.30
2018-08-09T14:41:26.516Z,73.00
2018-08-09T14:44:01.427Z,71.80
2018-08-09T14:46:33.222Z,72.30
2018-08-09T14:49:04.476Z,73.40
2018-08-09T14:51:34.980Z,73.40
2018-08-09T14:54:06.597Z,71.30
2018-08-09T14:56:39.913Z,71.20
2018-08-09T14:59:11.685Z,71.10
2018-08-09T15:01:44.886Z,70.90
2018-08-09T15:04:15.531Z,69.30
2018-08-09T15:06:45.190Z,68.50
2018-08-09T15:09:16.732Z,67.60
2018-08-09T15:11:47.780Z,66.80
2018-08-09T15:14:20.416Z,67.50
2018-08-09T15:16:50.297Z,65.90
2018-08-09T15:19:29.862Z,66.50
2018-08-09T15:22:00.585Z,64.60
2018-08-09T15:24:32.721Z,64.40
2018-08-09T15:27:07.128Z,65.00
2018-08-09T15:29:36.762Z,66.10
2018-08-09T15:32:07.526Z,64.70
2018-08-09T15:34:37.082Z,64.60
2018-08-09T15:37:07.057Z,63.20
2018-08-09T15:39:36.651Z,63.90
2018-08-09T15:42:06.487Z,64.00
2018-08-09T15:44:37.953Z,62.80
2018-08-09T15:47:10.842Z,62.90
2018-08-09T15:49:41.093Z,62.90
2018-08-09T15:52:12.736Z,62.30
2018-08-09T15:54:44.348Z,62.70
2018-08-09T15:57:14.101Z,61.90
2018-08-09T15:59:48.942Z,61.40
2018-08-09T16:02:18.895Z,61.60
2018-08-09T16:04:49.045Z,61.70
2018-08-09T16:07:19.023Z,62.40
2018-08-09T16:09:49.007Z,62.00
2018-08-09T16:12:18.967Z,62.60
2018-08-09T16:14:48.710Z,62.20
2018-08-09T16:17:18.603Z,62.30
2018-08-09T16:19:52.112Z,61.30
2018-08-09T16:22:21.963Z,61.50
2018-08-09T16:24:53.252Z,62.20
2018-08-09T16:27:23.219Z,61.80
2018-08-09T16:29:52.708Z,62.60
2018-08-09T16:32:22.425Z,62.00
2018-08-09T16:34:54.555Z,62.20
2018-08-09T16:37:27.011Z,62.60
2018-08-09T16:39:57.081Z,62.80
2018-08-09T16:42:27.106Z,62.40
2018-08-09T16:44:57.951Z,62.60
2018-08-09T16:47:28.257Z,63.00
2018-08-09T16:49:58.027Z,62.60
2018-08-09T16:52:30.049Z,62.30
2018-08-09T16:54:59.991Z,63.30
2018-08-09T16:57:30.564Z,63.40
2018-08-09T17:00:01.317Z,63.60
2018-08-09T17:02:31.288Z,64.20
2018-08-09T17:05:02.467Z,63.60
2018-08-09T17:07:32.470Z,63.70
2018-08-09T17:10:02.447Z,65.10
2018-08-09T17:12:32.943Z,63.50
2018-08-09T17:15:04.495Z,64.00
2018-08-09T17:17:34.187Z,64.30
2018-08-09T17:20:07.010Z,64.10
2018-08-09T17:22:38.232Z,63.80
2018-08-09T17:25:09.444Z,64.50
2018-08-09T17:27:44.671Z,64.60
2018-08-09T17:30:16.810Z,64.10
2018-08-09T17:32:46.351Z,64.20
2018-08-09T17:35:19.254Z,63.60
2018-08-09T17:37:50.083Z,63.70
2018-08-09T17:40:21.882Z,64.00
2018-08-09T17:42:54.377Z,64.20
2018-08-09T17:45:29.366Z,63.50
2018-08-09T17:47:59.499Z,63.50
2018-08-09T17:50:31.371Z,63.50
2018-08-09T17:53:03.529Z,63.80
2018-08-09T17:55:34.858Z,63.30
2018-08-09T17:58:05.488Z,63.00
2018-08-09T18:00:36.476Z,63.60
2018-08-09T18:03:10.622Z,64.10
2018-08-09T18:05:40.481Z,64.20
2018-08-09T18:08:11.216Z,64.10
2018-08-09T18:10:41.306Z,66.20
2018-08-09T18:13:12.891Z,67.60
2018-08-09T18:15:51.467Z,66.60
2018-08-09T18:18:21.290Z,66.20
2018-08-09T18:20:51.707Z,72.80
2018-08-09T18:23:23.826Z,78.50
2018-08-09T18:25:57.097Z,84.50
2018-08-09T18:28:27.147Z,88.30
2018-08-09T18:30:57.377Z,90.30
2018-08-09T18:33:29.317Z,90.70
2018-08-09T18:36:00.810Z,90.90
2018-08-09T18:38:31.820Z,90.50
2018-08-09T18:41:03.669Z,91.30
2018-08-09T18:43:34.418Z,91.60
2018-08-09T18:46:05.491Z,92.30
2018-08-09T18:48:42.717Z,92.10
2018-08-09T18:51:13.618Z,91.90
2018-08-09T18:53:43.537Z,91.00
2018-08-09T18:56:15.185Z,90.60
2018-08-09T18:58:46.414Z,91.40
2018-08-09T19:01:19.263Z,91.80
2018-08-09T19:03:49.437Z,91.60
2018-08-09T19:06:20.426Z,91.00
2018-08-09T19:08:52.549Z,91.20
2018-08-09T19:11:22.805Z,90.60
2018-08-09T19:13:57.191Z,90.50
2018-08-09T19:16:27.632Z,90.90
2018-08-09T19:18:58.402Z,90.30
2018-08-09T19:21:33.425Z,90.40
2018-08-09T19:24:05.538Z,90.50
2018-08-09T19:26:36.555Z,87.00
2018-08-09T19:29:08.093Z,86.30
2018-08-09T19:31:38.319Z,82.80
2018-08-09T19:34:09.985Z,82.40
2018-08-09T19:36:42.712Z,81.60
2018-08-09T19:39:17.281Z,82.00
2018-08-09T19:41:48.329Z,80.90
2018-08-09T19:44:21.708Z,79.50
2018-08-09T19:46:51.598Z,79.80
2018-08-09T19:49:26.481Z,78.50
2018-08-09T19:51:58.901Z,79.00
2018-08-09T19:54:31.237Z,78.50
2018-08-09T19:57:03.339Z,78.30
2018-08-09T19:59:34.501Z,76.90
2018-08-09T20:02:06.786Z,77.50
2018-08-09T20:04:36.688Z,77.20
2018-08-09T20:07:08.306Z,76.80
2018-08-09T20:09:41.427Z,77.40
2018-08-09T20:12:17.746Z,77.00
2018-08-09T20:14:49.360Z,77.70
2018-08-09T20:17:21.656Z,77.80
2018-08-09T20:19:57.212Z,77.30
2018-08-09T20:22:30.785Z,77.00
2018-08-09T20:25:04.697Z,76.80
2018-08-09T20:27:36.412Z,76.10
2018-08-09T20:30:10.233Z,75.50
2018-08-09T20:32:42.032Z,75.70
2018-08-09T20:35:15.037Z,75.10
2018-08-09T20:37:47.602Z,74.10
2018-08-09T20:40:18.439Z,74.10
2018-08-09T20:42:50.455Z,73.40
2018-08-09T20:45:22.587Z,74.00
2018-08-09T20:47:56.838Z,73.80
2018-08-09T20:50:30.559Z,72.10
2018-08-09T20:53:02.515Z,72.70
2018-08-09T20:55:39.937Z,72.40
2018-08-09T20:58:10.335Z,71.40
2018-08-09T21:00:40.572Z,71.40
2018-08-09T21:03:12.480Z,70.90
2018-08-09T21:05:43.997Z,70.70
2018-08-09T21:08:20.389Z,71.00
2018-08-09T21:10:50.497Z,71.30
2018-08-09T21:13:21.629Z,71.10
2018-08-09T21:15:52.509Z,70.10
2018-08-09T21:18:22.569Z,70.50
2018-08-09T21:20:53.952Z,70.40
2018-08-09T21:23:25.782Z,70.00
2018-08-09T21:25:57.031Z,70.00
2018-08-09T21:28:27.310Z,71.10
2018-08-09T21:30:57.221Z,70.70
2018-08-09T21:33:26.846Z,70.50
2018-08-09T21:35:59.005Z,71.00
2018-08-09T21:38:30.070Z,70.90
2018-08-09T21:41:00.771Z,71.40
2018-08-09T21:43:30.566Z,71.50
2018-08-09T21:46:00.285Z,71.50
2018-08-09T21:48:30.735Z,72.10
2018-08-09T21:51:00.284Z,72.80
2018-08-09T21:53:31.312Z,72.30
2018-08-09T21:56:01.913Z,73.40
2018-08-09T21:58:32.480Z,73.10
2018-08-09T22:01:06.094Z,73.20
2018-08-09T22:03:37.860Z,73.80
2018-08-09T22:06:13.269Z,73.10
2018-08-09T22:08:49.717Z,73.70
2018-08-09T22:11:25.915Z,74.10
2018-08-09T22:14:01.044Z,73.60
2018-08-09T22:16:36.491Z,73.20
2018-08-09T22:19:12.058Z,73.60
2018-08-09T22:21:48.340Z,73.90
2018-08-09T22:24:17.961Z,73.40
2018-08-09T22:26:48.599Z,73.60
2018-08-09T22:29:18.661Z,73.50
2018-08-09T22:31:51.404Z,73.90
2018-08-09T22:34:22.551Z,74.00
2018-08-09T22:36:52.964Z,74.60
2018-08-09T22:39:22.578Z,74.80
2018-08-09T22:41:52.316Z,74.50
2018-08-09T22:44:22.512Z,75.30
2018-08-09T22:46:54.305Z,75.00
2018-08-09T22:49:23.911Z,75.10
2018-08-09T22:51:53.989Z,75.40
2018-08-09T22:54:23.844Z,75.00
2018-08-09T22:56:53.550Z,75.60
2018-08-09T22:59:23.587Z,75.90
2018-08-09T23:01:54.510Z,76.10
2018-08-09T23:04:25.006Z,76.10
2018-08-09T23:06:54.735Z,76.40
2018-08-09T23:09:26.063Z,76.90
2018-08-09T23:11:55.784Z,76.60
2018-08-09T23:14:25.497Z,77.70
2018-08-09T23:16:55.343Z,79.60
2018-08-09T23:19:24.931Z,81.10
2018-08-09T23:21:55.413Z,83.70
2018-08-09T23:24:24.948Z,84.10
2018-08-09T23:26:55.226Z,84.70
2018-08-09T23:29:24.855Z,84.60
2018-08-09T23:31:55.788Z,84.10
2018-08-09T23:34:25.355Z,84.50
2018-08-09T23:36:55.005Z,84.60
2018-08-09T23:39:24.710Z,83.90
2018-08-09T23:41:54.379Z,83.90
2018-08-09T23:44:26.025Z,83.70
2018-08-09T23:46:55.970Z,83.00
2018-08-09T23:49:25.960Z,84.50
2018-08-09T23:51:56.448Z,83.10
2018-08-09T23:54:27.985Z,81.20
2018-08-09T23:56:59.248Z,80.80
2018-08-09T23:59:29.595Z,79.40
